createdAt,value
2023-02-18T00:03:54.436Z,75.32
2023-02-18T00:09:15.267Z,75.50
2023-02-18T00:14:35.965Z,75.72
2023-02-18T00:19:57.292Z,75.95
2023-02-18T00:25:18.000Z,76.11
2023-02-18T00:30:43.311Z,76.00
2023-02-18T00:36:07.078Z,76.07
2023-02-18T00:41:29.419Z,75.82
2023-02-18T00:46:51.573Z,76.11
2023-02-18T00:52:12.366Z,76.14
2023-02-18T00:57:35.006Z,75.82
2023-02-18T01:02:55.784Z,76.09
2023-02-18T01:08:18.666Z,76.00
2023-02-18T01:13:40.661Z,75.84
2023-02-18T01:19:01.608Z,75.88
2023-02-18T01:24:22.397Z,75.92
2023-02-18T01:29:43.803Z,75.69
2023-02-18T01:35:07.063Z,75.87
2023-02-18T01:40:29.488Z,75.60
2023-02-18T01:45:52.782Z,75.83
2023-02-18T01:51:26.391Z,75.50
2023-02-18T01:56:55.401Z,75.88
2023-02-18T02:02:21.386Z,75.55
2023-02-18T02:07:43.417Z,75.11
2023-02-18T02:13:15.570Z,75.24
2023-02-18T02:18:45.143Z,75.30
2023-02-18T02:24:37.128Z,75.08
2023-02-18T02:30:07.748Z,75.16
2023-02-18T02:35:41.811Z,75.38
2023-02-18T02:41:33.105Z,75.00
2023-02-18T02:47:02.161Z,75.25
2023-02-18T02:52:36.332Z,75.26
2023-02-18T02:57:57.509Z,75.36
2023-02-18T03:04:03.657Z,75.58
2023-02-18T03:09:34.508Z,75.18
2023-02-18T03:15:16.949Z,75.35
2023-02-18T03:20:45.964Z,75.73
2023-02-18T03:26:09.397Z,75.50
2023-02-18T03:31:34.519Z,75.74
2023-02-18T03:36:58.027Z,75.51
2023-02-18T03:42:19.134Z,75.60
2023-02-18T03:47:40.169Z,75.58
2023-02-18T03:53:01.378Z,75.46
2023-02-18T03:58:22.012Z,75.20
2023-02-18T04:03:42.653Z,75.20
2023-02-18T04:09:08.933Z,75.58
2023-02-18T04:14:29.681Z,75.21
2023-02-18T04:19:50.311Z,75.49
2023-02-18T04:25:11.216Z,74.91
2023-02-18T04:30:32.252Z,74.75
2023-02-18T04:35:52.793Z,75.17
2023-02-18T04:41:13.435Z,74.99
2023-02-18T04:46:34.192Z,75.17
2023-02-18T04:51:54.894Z,74.84
2023-02-18T04:57:15.646Z,75.09
2023-02-18T05:02:36.313Z,74.60
2023-02-18T05:07:57.284Z,75.07
2023-02-18T05:13:18.170Z,74.57
2023-02-18T05:18:38.852Z,74.68
2023-02-18T05:23:59.741Z,74.56
2023-02-18T05:29:20.921Z,74.71
2023-02-18T05:34:41.846Z,74.50
2023-02-18T05:40:03.793Z,74.38
2023-02-18T05:45:24.413Z,74.66
2023-02-18T05:50:45.325Z,74.38
2023-02-18T05:56:07.033Z,74.36
2023-02-18T06:01:27.961Z,74.30
2023-02-18T06:06:49.196Z,74.40
2023-02-18T06:12:10.138Z,74.38
2023-02-18T06:17:30.868Z,74.04
2023-02-18T06:22:51.647Z,74.30
2023-02-18T06:28:12.341Z,74.28
2023-02-18T06:33:33.145Z,74.32
2023-02-18T06:38:57.437Z,74.00
2023-02-18T06:44:18.166Z,73.99
2023-02-18T06:49:39.103Z,73.97
2023-02-18T06:55:00.725Z,74.05
2023-02-18T07:00:22.795Z,74.04
2023-02-18T07:05:43.733Z,73.87
2023-02-18T07:11:05.033Z,73.97
2023-02-18T07:16:25.986Z,74.14
2023-02-18T07:21:46.972Z,74.23
2023-02-18T07:27:07.856Z,74.26
2023-02-18T07:32:28.965Z,73.84
2023-02-18T07:37:50.446Z,74.03
2023-02-18T07:43:11.399Z,73.92
2023-02-18T07:48:32.171Z,73.82
2023-02-18T07:53:52.869Z,74.08
2023-02-18T07:59:14.179Z,73.83
2023-02-18T08:04:34.943Z,74.05
2023-02-18T08:09:55.623Z,73.73
2023-02-18T08:15:16.572Z,74.23
2023-02-18T08:20:38.664Z,74.10
2023-02-18T08:25:59.445Z,74.06
2023-02-18T08:31:25.905Z,73.85
2023-02-18T08:36:47.098Z,74.20
2023-02-18T08:42:07.996Z,73.66
2023-02-18T08:48:18.157Z,73.74
2023-02-18T08:53:09.559Z,73.84
2023-02-18T08:58:30.158Z,73.60
2023-02-18T09:03:51.008Z,73.66
2023-02-18T09:09:11.559Z,74.07
2023-02-18T09:14:32.638Z,74.00
2023-02-18T09:19:53.598Z,73.84
2023-02-18T09:25:14.433Z,74.06
2023-02-18T09:30:35.387Z,74.00
2023-02-18T09:35:56.406Z,74.12
2023-02-18T09:41:23.152Z,74.16
2023-02-18T09:46:52.505Z,74.10
2023-02-18T09:52:19.036Z,74.15
2023-02-18T09:57:45.206Z,74.42
2023-02-18T10:03:18.418Z,74.25
2023-02-18T10:08:51.088Z,74.62
2023-02-18T10:14:15.008Z,74.42
2023-02-18T10:19:41.100Z,74.22
2023-02-18T10:25:07.266Z,74.31
2023-02-18T10:30:34.564Z,74.35
2023-02-18T10:36:04.019Z,73.97
2023-02-18T10:42:02.564Z,73.97
2023-02-18T10:47:43.672Z,73.67
2023-02-18T10:53:37.618Z,73.78
2023-02-18T10:59:19.048Z,73.47
2023-02-18T11:04:43.627Z,73.67
2023-02-18T11:10:19.442Z,73.48
2023-02-18T11:16:01.111Z,73.48
2023-02-18T11:21:35.781Z,73.40
2023-02-18T11:26:56.479Z,73.53
2023-02-18T11:32:18.462Z,73.55
2023-02-18T11:37:39.295Z,73.29
2023-02-18T11:43:14.659Z,73.33
2023-02-18T11:48:35.774Z,73.09
2023-02-18T11:54:05.486Z,72.99
2023-02-18T11:59:28.837Z,72.71
2023-02-18T12:05:15.559Z,72.80
2023-02-18T12:10:53.890Z,72.75
2023-02-18T12:16:39.845Z,72.46
2023-02-18T12:22:13.758Z,71.98
2023-02-18T12:28:11.190Z,71.82
2023-02-18T12:33:59.268Z,71.53
2023-02-18T12:40:14.215Z,71.27
2023-02-18T12:45:44.427Z,71.33
2023-02-18T12:51:20.691Z,70.80
2023-02-18T12:56:53.910Z,70.67
2023-02-18T13:02:24.594Z,70.50
2023-02-18T13:08:03.792Z,70.27
2023-02-18T13:13:40.185Z,70.31
2023-02-18T13:19:18.797Z,70.33
2023-02-18T13:24:42.806Z,70.27
2023-02-18T13:30:34.487Z,70.57
2023-02-18T13:36:01.483Z,70.54
2023-02-18T13:41:25.766Z,70.20
2023-02-18T13:46:57.604Z,70.22
2023-02-18T13:52:20.612Z,70.22
2023-02-18T13:57:41.468Z,70.18
2023-02-18T14:03:29.722Z,70.04
2023-02-18T14:09:02.007Z,69.84
2023-02-18T14:14:25.853Z,69.37
2023-02-18T14:20:01.937Z,69.00
2023-02-18T14:25:49.923Z,68.10
2023-02-18T14:31:14.297Z,68.15
2023-02-18T14:37:10.748Z,68.33
2023-02-18T14:42:55.270Z,67.86
2023-02-18T14:48:41.613Z,68.03
2023-02-18T14:54:06.224Z,67.86
2023-02-18T14:59:31.363Z,67.71
2023-02-18T15:04:52.387Z,67.93
2023-02-18T15:10:16.336Z,67.33
2023-02-18T15:15:37.337Z,67.59
2023-02-18T15:21:02.107Z,67.64
2023-02-18T15:26:23.218Z,67.62
2023-02-18T15:31:43.874Z,67.76
2023-02-18T15:37:08.488Z,67.37
2023-02-18T15:42:34.535Z,67.44
2023-02-18T15:47:57.678Z,67.57
2023-02-18T15:53:20.796Z,67.52
2023-02-18T15:58:42.242Z,67.28
2023-02-18T16:04:06.288Z,67.42
2023-02-18T16:09:31.996Z,67.48
2023-02-18T16:14:54.934Z,67.47
2023-02-18T16:20:27.557Z,67.45
2023-02-18T16:25:49.614Z,67.11
2023-02-18T16:31:10.333Z,67.11
2023-02-18T16:36:31.790Z,67.26
2023-02-18T16:41:52.821Z,66.84
2023-02-18T16:47:16.466Z,67.04
2023-02-18T16:52:37.476Z,67.21
2023-02-18T16:57:58.639Z,66.87
2023-02-18T17:03:20.023Z,66.54
2023-02-18T17:08:41.136Z,66.99
2023-02-18T17:14:05.208Z,67.02
2023-02-18T17:19:26.335Z,66.72
2023-02-18T17:24:47.044Z,66.95
2023-02-18T17:30:08.456Z,66.86
2023-02-18T17:35:29.437Z,67.12
2023-02-18T17:40:50.705Z,67.03
2023-02-18T17:46:17.058Z,66.66
2023-02-18T17:51:39.351Z,66.99
2023-02-18T17:57:00.424Z,67.00
2023-02-18T18:02:28.391Z,67.32
2023-02-18T18:07:51.691Z,67.13
2023-02-18T18:13:26.302Z,66.92
2023-02-18T18:18:47.273Z,67.24
2023-02-18T18:24:12.084Z,67.25
2023-02-18T18:29:33.583Z,67.32
2023-02-18T18:34:54.364Z,67.46
2023-02-18T18:40:15.214Z,67.36
2023-02-18T18:45:39.867Z,67.65
2023-02-18T18:51:02.325Z,67.71
2023-02-18T18:56:23.365Z,67.87
2023-02-18T19:01:44.782Z,67.81
2023-02-18T19:07:05.414Z,67.40
2023-02-18T19:12:26.249Z,67.63
2023-02-18T19:17:49.969Z,67.58
2023-02-18T19:23:12.697Z,67.63
2023-02-18T19:28:33.818Z,67.60
2023-02-18T19:33:55.637Z,67.69
2023-02-18T19:39:16.599Z,67.83
2023-02-18T19:44:37.526Z,68.08
2023-02-18T19:50:00.102Z,67.75
2023-02-18T19:55:22.185Z,67.83
2023-02-18T20:00:43.782Z,67.86
2023-02-18T20:06:05.074Z,68.17
2023-02-18T20:11:25.943Z,68.19
2023-02-18T20:16:47.064Z,68.30
2023-02-18T20:22:10.433Z,68.52
2023-02-18T20:27:32.876Z,68.25
2023-02-18T20:32:54.075Z,68.39
2023-02-18T20:38:14.761Z,68.48
2023-02-18T20:43:35.949Z,68.18
2023-02-18T20:48:56.941Z,68.52
2023-02-18T20:54:22.145Z,68.69
2023-02-18T20:59:43.423Z,68.45
2023-02-18T21:05:06.975Z,68.73
2023-02-18T21:10:27.772Z,68.79
2023-02-18T21:15:49.060Z,68.75
2023-02-18T21:21:10.727Z,69.08
2023-02-18T21:26:32.463Z,69.40
2023-02-18T21:31:53.664Z,69.22
2023-02-18T21:37:14.294Z,69.42
2023-02-18T21:42:35.273Z,69.60
2023-02-18T21:47:58.441Z,69.45
2023-02-18T21:53:18.959Z,69.52
2023-02-18T21:58:41.820Z,69.52
2023-02-18T22:04:02.984Z,69.83
2023-02-18T22:09:23.808Z,69.79
2023-02-18T22:14:44.750Z,69.84
2023-02-18T22:20:07.340Z,70.10
2023-02-18T22:25:28.115Z,69.61
2023-02-18T22:30:49.138Z,70.01
2023-02-18T22:36:10.772Z,70.16
2023-02-18T22:41:33.248Z,70.09
2023-02-18T22:46:58.393Z,70.11
2023-02-18T22:52:19.315Z,70.02
2023-02-18T22:57:40.065Z,70.53
2023-02-18T23:03:00.713Z,70.63
2023-02-18T23:08:22.025Z,70.58
2023-02-18T23:13:44.059Z,70.69
2023-02-18T23:19:04.907Z,71.18
2023-02-18T23:24:25.623Z,71.18
2023-02-18T23:29:46.479Z,71.64
2023-02-18T23:35:07.326Z,72.10
2023-02-18T23:40:28.061Z,71.94
2023-02-18T23:45:48.927Z,72.01
2023-02-18T23:51:12.710Z,72.13
2023-02-18T23:56:33.495Z,72.58
